createdAt,value
2024-05-09T00:00:02.896Z,5.62
2024-05-09T00:01:02.517Z,5.40
2024-05-09T00:02:02.509Z,5.98
2024-05-09T00:03:02.489Z,6.05
2024-05-09T00:04:02.559Z,5.45
2024-05-09T00:05:02.565Z,5.18
2024-05-09T00:06:02.560Z,6.08
2024-05-09T00:07:02.422Z,5.28
2024-05-09T00:08:02.528Z,5.67
2024-05-09T00:09:02.390Z,5.39
2024-05-09T00:10:03.198Z,5.31
2024-05-09T00:11:02.661Z,4.94
2024-05-09T00:12:02.572Z,5.25
2024-05-09T00:13:02.356Z,4.71
2024-05-09T00:14:02.363Z,5.21
2024-05-09T00:15:02.349Z,5.82
2024-05-09T00:16:02.326Z,6.54
2024-05-09T00:17:02.343Z,6.08
2024-05-09T00:18:02.657Z,6.75
2024-05-09T00:19:02.356Z,6.56
2024-05-09T00:20:02.622Z,6.93
2024-05-09T00:21:02.481Z,7.20
2024-05-09T00:22:02.257Z,7.48
2024-05-09T00:23:02.307Z,6.58
2024-05-09T00:24:02.231Z,6.60
2024-05-09T00:25:02.245Z,7.16
2024-05-09T00:26:02.280Z,7.14
2024-05-09T00:27:02.205Z,6.03
2024-05-09T00:28:02.196Z,6.96
2024-05-09T00:29:02.296Z,6.23
2024-05-09T00:30:04.125Z,6.31
2024-05-09T00:31:02.153Z,6.43
2024-05-09T00:32:02.287Z,6.36
2024-05-09T00:33:02.294Z,6.00
2024-05-09T00:34:02.275Z,5.77
2024-05-09T00:35:02.197Z,5.79
2024-05-09T00:36:02.122Z,5.81
2024-05-09T00:37:02.093Z,7.07
2024-05-09T00:38:02.439Z,5.47
2024-05-09T00:39:02.093Z,5.83
2024-05-09T00:40:02.116Z,6.30
2024-05-09T00:41:02.155Z,5.87
2024-05-09T00:42:02.050Z,5.29
2024-05-09T00:43:02.027Z,5.01
2024-05-09T00:44:02.097Z,5.53
2024-05-09T00:45:02.037Z,5.25
2024-05-09T00:46:02.138Z,5.09
2024-05-09T00:47:02.022Z,5.62
2024-05-09T00:48:02.212Z,4.95
2024-05-09T00:49:02.068Z,5.24
2024-05-09T00:50:02.076Z,5.27
2024-05-09T00:51:01.993Z,4.79
2024-05-09T00:52:01.951Z,5.72
2024-05-09T00:53:02.039Z,5.65
2024-05-09T00:54:01.929Z,5.65
2024-05-09T00:55:01.913Z,5.21
2024-05-09T00:56:01.945Z,5.60
2024-05-09T00:57:01.900Z,5.82
2024-05-09T00:58:01.886Z,4.98
2024-05-09T00:59:01.920Z,5.03
2024-05-09T01:00:01.871Z,5.29
2024-05-09T01:01:01.940Z,5.57
2024-05-09T01:02:01.924Z,5.33
2024-05-09T01:03:02.094Z,5.46
2024-05-09T01:04:01.984Z,5.23
2024-05-09T01:05:01.909Z,5.42
2024-05-09T01:06:01.842Z,5.02
2024-05-09T01:07:01.782Z,5.36
2024-05-09T01:08:01.881Z,5.32
2024-05-09T01:09:01.754Z,4.82
2024-05-09T01:10:01.777Z,4.72
2024-05-09T01:11:01.873Z,5.11
2024-05-09T01:12:01.794Z,5.12
2024-05-09T01:13:01.722Z,5.35
2024-05-09T01:14:01.824Z,5.84
2024-05-09T01:15:01.740Z,5.59
2024-05-09T01:16:01.707Z,5.71
2024-05-09T01:17:01.760Z,5.51
2024-05-09T01:18:02.163Z,5.27
2024-05-09T01:19:01.791Z,5.22
2024-05-09T01:20:01.756Z,5.46
2024-05-09T01:21:01.752Z,4.97
2024-05-09T01:22:01.626Z,5.93
2024-05-09T01:23:01.637Z,5.22
2024-05-09T01:24:01.633Z,4.83
2024-05-09T01:25:01.592Z,5.12
2024-05-09T01:26:01.649Z,4.83
2024-05-09T01:27:01.570Z,4.37
2024-05-09T01:28:01.584Z,5.09
2024-05-09T01:29:01.596Z,4.65
2024-05-09T01:30:01.559Z,4.69
2024-05-09T01:31:01.521Z,5.11
2024-05-09T01:32:01.657Z,5.79
2024-05-09T01:33:02.039Z,5.05
2024-05-09T01:34:01.565Z,5.51
2024-05-09T01:35:01.555Z,5.09
2024-05-09T01:36:01.477Z,4.81
2024-05-09T01:37:01.457Z,4.19
2024-05-09T01:38:01.524Z,5.03
2024-05-09T01:39:01.473Z,4.70
2024-05-09T01:40:01.435Z,5.25
2024-05-09T01:41:01.471Z,5.04
2024-05-09T01:42:01.436Z,4.96
2024-05-09T01:43:01.415Z,5.74
2024-05-09T01:44:01.437Z,6.18
2024-05-09T01:45:01.381Z,5.89
2024-05-09T01:46:01.375Z,6.10
2024-05-09T01:47:01.483Z,5.80
2024-05-09T01:48:02.218Z,6.59
2024-05-09T01:49:01.454Z,5.84
2024-05-09T01:50:01.526Z,6.32
2024-05-09T01:51:01.503Z,6.13
2024-05-09T01:52:01.328Z,5.57
2024-05-09T01:53:01.367Z,5.98
2024-05-09T01:54:01.317Z,6.86
2024-05-09T01:55:04.670Z,6.36
2024-05-09T01:56:01.312Z,6.17
2024-05-09T01:57:01.265Z,5.56
2024-05-09T01:58:01.326Z,6.25
2024-05-09T01:59:01.302Z,5.68
2024-05-09T02:00:01.243Z,5.40
2024-05-09T02:01:01.291Z,5.43
2024-05-09T02:02:01.482Z,5.51
2024-05-09T02:03:01.578Z,5.76
2024-05-09T02:04:01.473Z,5.54
2024-05-09T02:05:01.264Z,5.65
2024-05-09T02:06:01.346Z,5.22
2024-05-09T02:07:01.138Z,5.76
2024-05-09T02:08:01.292Z,6.03
2024-05-09T02:09:01.130Z,6.74
2024-05-09T02:10:01.123Z,7.05
2024-05-09T02:11:01.303Z,7.18
2024-05-09T02:12:01.326Z,6.52
2024-05-09T02:13:01.197Z,6.74
2024-05-09T02:14:01.159Z,7.13
2024-05-09T02:15:01.080Z,6.74
2024-05-09T02:16:01.070Z,6.52
2024-05-09T02:17:01.091Z,6.56
2024-05-09T02:18:01.255Z,5.82
2024-05-09T02:19:01.094Z,5.01
2024-05-09T02:20:01.122Z,6.49
2024-05-09T02:21:01.139Z,6.14
2024-05-09T02:22:00.995Z,5.57
2024-05-09T02:23:01.008Z,5.68
2024-05-09T02:24:01.016Z,6.07
2024-05-09T02:25:00.999Z,5.52
2024-05-09T02:26:00.966Z,6.10
2024-05-09T02:27:00.942Z,5.48
2024-05-09T02:28:00.964Z,5.66
2024-05-09T02:29:00.966Z,5.27
2024-05-09T02:30:00.911Z,5.23
2024-05-09T02:31:00.895Z,5.34
2024-05-09T02:32:00.983Z,4.52
2024-05-09T02:33:01.120Z,4.76
2024-05-09T02:34:01.166Z,5.34
2024-05-09T02:35:00.927Z,5.26
2024-05-09T02:36:00.854Z,5.71
2024-05-09T02:37:00.838Z,6.28
2024-05-09T02:38:01.085Z,5.26
2024-05-09T02:39:00.832Z,5.70
2024-05-09T02:40:00.805Z,5.69
2024-05-09T02:41:00.847Z,5.60
2024-05-09T02:42:00.790Z,5.16
2024-05-09T02:43:00.787Z,5.42
2024-05-09T02:44:00.828Z,4.99
2024-05-09T02:45:00.748Z,4.88
2024-05-09T02:46:00.754Z,5.14
2024-05-09T02:47:00.768Z,4.85
2024-05-09T02:48:01.496Z,5.68
2024-05-09T02:49:00.776Z,5.46
2024-05-09T02:50:00.733Z,5.76
2024-05-09T02:51:00.819Z,5.73
2024-05-09T02:52:00.697Z,5.55
2024-05-09T02:53:00.754Z,5.34
2024-05-09T02:54:00.672Z,5.38
2024-05-09T02:55:00.637Z,5.35
2024-05-09T02:56:00.758Z,5.40
2024-05-09T02:57:00.640Z,5.36
2024-05-09T02:58:00.617Z,5.35
2024-05-09T02:59:00.687Z,5.30
2024-05-09T03:00:00.688Z,5.64
2024-05-09T03:01:00.543Z,5.72
2024-05-09T03:02:00.753Z,5.41
2024-05-09T03:03:00.703Z,5.56
2024-05-09T03:04:00.623Z,5.60
2024-05-09T03:05:00.547Z,5.12
2024-05-09T03:06:00.492Z,4.62
2024-05-09T03:07:00.553Z,5.33
2024-05-09T03:08:00.519Z,6.10
2024-05-09T03:09:00.454Z,5.01
2024-05-09T03:10:00.435Z,5.54
2024-05-09T03:11:00.588Z,5.66
2024-05-09T03:12:00.499Z,5.25
2024-05-09T03:13:00.414Z,5.44
2024-05-09T03:14:00.421Z,5.22
2024-05-09T03:15:00.427Z,5.46
2024-05-09T03:16:00.414Z,5.25
2024-05-09T03:17:00.392Z,4.98
2024-05-09T03:18:00.619Z,5.08
2024-05-09T03:19:00.438Z,5.43
2024-05-09T03:20:00.399Z,5.17
2024-05-09T03:21:00.383Z,5.38
2024-05-09T03:22:00.312Z,5.21
2024-05-09T03:23:00.334Z,5.22
2024-05-09T03:24:00.306Z,5.19
2024-05-09T03:25:00.321Z,5.06
2024-05-09T03:26:00.323Z,5.15
2024-05-09T03:27:00.269Z,5.19
2024-05-09T03:28:00.276Z,5.06
2024-05-09T03:29:00.281Z,5.16
2024-05-09T03:30:00.282Z,5.17
2024-05-09T03:31:00.235Z,5.99
2024-05-09T03:32:00.304Z,5.44
2024-05-09T03:33:00.476Z,5.45
2024-05-09T03:34:00.384Z,5.74
2024-05-09T03:35:00.280Z,6.09
2024-05-09T03:36:00.169Z,6.56
2024-05-09T03:37:00.173Z,5.39
2024-05-09T03:38:00.233Z,6.34
2024-05-09T03:39:00.158Z,6.03
2024-05-09T03:40:00.207Z,6.30
2024-05-09T03:41:00.123Z,6.56
2024-05-09T03:42:00.109Z,6.14
2024-05-09T03:43:00.110Z,7.38
2024-05-09T03:44:00.140Z,7.27
2024-05-09T03:45:00.129Z,6.39
2024-05-09T03:46:00.076Z,6.31
2024-05-09T03:47:00.092Z,7.11
2024-05-09T03:48:00.199Z,6.29
2024-05-09T03:49:00.087Z,6.07
2024-05-09T03:50:00.049Z,6.34
2024-05-09T03:51:00.131Z,5.63
2024-05-09T03:52:00.002Z,6.38
2024-05-09T03:53:00.288Z,5.76
2024-05-09T03:53:59.981Z,5.54
2024-05-09T03:54:59.975Z,5.17
2024-05-09T03:56:00.038Z,6.19
2024-05-09T03:56:59.986Z,5.36
2024-05-09T03:58:00.060Z,5.02
2024-05-09T03:58:59.981Z,5.53
2024-05-09T03:59:59.915Z,5.71
2024-05-09T04:00:59.958Z,5.65
2024-05-09T04:02:00.039Z,5.40
2024-05-09T04:03:00.073Z,5.94
2024-05-09T04:03:59.913Z,6.16
2024-05-09T04:04:59.900Z,5.95
2024-05-09T04:05:59.854Z,5.97
2024-05-09T04:06:59.863Z,6.62
2024-05-09T04:07:59.903Z,6.08
2024-05-09T04:08:59.834Z,6.87
2024-05-09T04:09:59.813Z,6.70
2024-05-09T04:10:59.888Z,6.12
2024-05-09T04:11:59.878Z,6.24
2024-05-09T04:12:59.792Z,5.81
2024-05-09T04:13:59.798Z,5.66
2024-05-09T04:14:59.762Z,6.21
2024-05-09T04:15:59.781Z,5.89
2024-05-09T04:16:59.796Z,5.98
2024-05-09T04:18:00.337Z,5.38
2024-05-09T04:18:59.766Z,6.15
2024-05-09T04:19:59.719Z,5.82
2024-05-09T04:20:59.789Z,6.02
2024-05-09T04:21:59.688Z,5.62
2024-05-09T04:22:59.731Z,5.59
2024-05-09T04:23:59.677Z,5.34
2024-05-09T04:24:59.671Z,5.77
2024-05-09T04:25:59.669Z,6.11
2024-05-09T04:26:59.695Z,5.65
2024-05-09T04:27:59.624Z,5.55
2024-05-09T04:28:59.683Z,5.23
2024-05-09T04:29:59.622Z,5.79
2024-05-09T04:30:59.609Z,5.86
2024-05-09T04:31:59.710Z,5.47
2024-05-09T04:32:59.713Z,5.32
2024-05-09T04:33:59.697Z,5.47
2024-05-09T04:34:59.607Z,5.10
2024-05-09T04:35:59.595Z,5.79
2024-05-09T04:36:59.538Z,5.94
2024-05-09T04:37:59.632Z,4.95
2024-05-09T04:38:59.895Z,5.86
2024-05-09T04:39:59.618Z,5.84
2024-05-09T04:40:59.565Z,5.87
2024-05-09T04:41:59.476Z,4.97
2024-05-09T04:42:59.472Z,5.84
2024-05-09T04:43:59.491Z,5.95
2024-05-09T04:44:59.451Z,5.91
2024-05-09T04:45:59.438Z,5.22
2024-05-09T04:46:59.468Z,5.65
2024-05-09T04:47:59.892Z,5.58
2024-05-09T04:48:59.475Z,5.40
2024-05-09T04:49:59.405Z,5.37
2024-05-09T04:50:59.505Z,5.52
2024-05-09T04:51:59.377Z,5.23
2024-05-09T04:52:59.451Z,5.47
2024-05-09T04:53:59.365Z,4.84
2024-05-09T04:54:59.348Z,5.31
2024-05-09T04:55:59.373Z,5.64
2024-05-09T04:56:59.337Z,6.11
2024-05-09T04:57:59.347Z,5.79
2024-05-09T04:58:59.376Z,5.53
2024-05-09T04:59:59.294Z,5.66
2024-05-09T05:00:59.324Z,5.74
2024-05-09T05:01:59.319Z,5.76
2024-05-09T05:02:59.693Z,5.39
2024-05-09T05:03:59.453Z,5.91
2024-05-09T05:04:59.361Z,6.07
2024-05-09T05:05:59.441Z,6.43
2024-05-09T05:07:02.094Z,7.03
2024-05-09T05:07:59.272Z,6.55
2024-05-09T05:08:59.203Z,5.95
2024-05-09T05:09:59.224Z,6.20
2024-05-09T05:10:59.269Z,7.62
2024-05-09T05:11:59.250Z,7.86
2024-05-09T05:12:59.164Z,6.14
2024-05-09T05:13:59.171Z,6.29
2024-05-09T05:14:59.155Z,7.27
2024-05-09T05:15:59.123Z,5.88
2024-05-09T05:16:59.202Z,6.41
2024-05-09T05:17:59.241Z,6.48
2024-05-09T05:18:59.177Z,6.56
2024-05-09T05:19:59.153Z,6.72
2024-05-09T05:20:59.273Z,5.92
2024-05-09T05:21:59.082Z,6.39
2024-05-09T05:22:59.121Z,7.23
2024-05-09T05:23:59.043Z,7.84
2024-05-09T05:24:59.040Z,6.24
2024-05-09T05:25:59.093Z,7.85
2024-05-09T05:26:59.023Z,6.67
2024-05-09T05:27:59.001Z,7.43
2024-05-09T05:28:59.014Z,7.24
2024-05-09T05:29:58.978Z,6.43
2024-05-09T05:30:58.987Z,6.95
2024-05-09T05:31:59.058Z,6.67
2024-05-09T05:32:59.004Z,10.16
2024-05-09T05:33:59.102Z,7.20
2024-05-09T05:34:58.967Z,6.97
2024-05-09T05:35:58.932Z,7.32
2024-05-09T05:36:58.933Z,7.40
2024-05-09T05:37:58.953Z,7.18
2024-05-09T05:38:58.916Z,7.59
2024-05-09T05:39:58.885Z,7.17
2024-05-09T05:40:58.924Z,6.83
2024-05-09T05:41:58.857Z,7.40
2024-05-09T05:42:58.848Z,8.49
2024-05-09T05:43:58.863Z,6.75
2024-05-09T05:44:58.844Z,9.38
2024-05-09T05:45:58.818Z,6.65
2024-05-09T05:46:58.835Z,6.89
2024-05-09T05:47:58.985Z,7.33
2024-05-09T05:48:58.961Z,6.26
2024-05-09T05:49:58.825Z,6.17
2024-05-09T05:51:01.135Z,7.65
2024-05-09T05:51:58.752Z,7.17
2024-05-09T05:52:58.764Z,7.08
2024-05-09T05:53:58.751Z,6.40
2024-05-09T05:54:58.752Z,6.93
2024-05-09T05:55:58.737Z,6.69
2024-05-09T05:56:58.724Z,7.04
2024-05-09T05:57:58.687Z,6.88
2024-05-09T05:58:58.729Z,7.59
2024-05-09T05:59:58.664Z,6.40
2024-05-09T06:00:58.739Z,7.84
2024-05-09T06:01:58.665Z,7.17
2024-05-09T06:02:58.783Z,6.29
2024-05-09T06:03:58.755Z,6.92
2024-05-09T06:04:58.705Z,7.67
2024-05-09T06:05:58.645Z,7.27
2024-05-09T06:06:58.597Z,7.60
2024-05-09T06:07:58.663Z,6.55
2024-05-09T06:08:58.601Z,7.46
2024-05-09T06:09:58.556Z,7.27
2024-05-09T06:10:58.658Z,7.34
2024-05-09T06:11:58.605Z,6.97
2024-05-09T06:12:58.547Z,6.87
2024-05-09T06:13:58.564Z,7.29
2024-05-09T06:14:58.511Z,7.60
2024-05-09T06:15:58.506Z,7.02
2024-05-09T06:16:58.560Z,7.50
2024-05-09T06:17:59.026Z,6.86
2024-05-09T06:18:58.542Z,7.39
2024-05-09T06:19:58.479Z,6.82
2024-05-09T06:20:58.471Z,7.02
2024-05-09T06:21:58.447Z,7.23
2024-05-09T06:22:58.457Z,5.79
2024-05-09T06:23:58.424Z,7.09
2024-05-09T06:24:58.406Z,6.72
2024-05-09T06:25:58.458Z,7.01
2024-05-09T06:26:58.600Z,7.38
2024-05-09T06:27:58.376Z,6.90
2024-05-09T06:28:58.416Z,6.75
2024-05-09T06:29:58.348Z,7.33
2024-05-09T06:30:58.360Z,7.12
2024-05-09T06:32:00.309Z,6.76
2024-05-09T06:32:58.474Z,7.04
2024-05-09T06:33:58.439Z,6.45
2024-05-09T06:34:58.357Z,5.98
2024-05-09T06:35:58.309Z,6.29
2024-05-09T06:36:58.291Z,6.69
2024-05-09T06:37:58.314Z,5.80
2024-05-09T06:38:58.286Z,6.27
2024-05-09T06:39:58.248Z,6.85
2024-05-09T06:40:58.340Z,6.64
2024-05-09T06:41:58.230Z,5.87
2024-05-09T06:42:58.225Z,5.99
2024-05-09T06:43:58.262Z,6.09
2024-05-09T06:44:58.243Z,6.34
2024-05-09T06:45:58.200Z,5.93
2024-05-09T06:46:59.726Z,5.29
2024-05-09T06:47:58.402Z,4.96
2024-05-09T06:48:58.391Z,5.38
2024-05-09T06:49:58.203Z,5.67
2024-05-09T06:50:58.151Z,5.22
2024-05-09T06:51:58.117Z,5.75
2024-05-09T06:52:58.182Z,5.11
2024-05-09T06:53:58.107Z,5.66
2024-05-09T06:54:58.117Z,4.98
2024-05-09T06:55:58.159Z,5.96
2024-05-09T06:56:58.072Z,5.11
2024-05-09T06:57:58.058Z,4.47
2024-05-09T06:58:58.117Z,5.73
2024-05-09T06:59:58.056Z,5.06
2024-05-09T07:00:58.115Z,5.30
2024-05-09T07:01:58.035Z,5.93
2024-05-09T07:02:59.698Z,5.18
2024-05-09T07:03:58.109Z,5.25
2024-05-09T07:04:58.058Z,4.96
2024-05-09T07:05:58.055Z,5.38
2024-05-09T07:06:57.969Z,4.92
2024-05-09T07:07:57.956Z,4.85
2024-05-09T07:08:57.957Z,5.10
2024-05-09T07:09:57.927Z,4.61
2024-05-09T07:10:58.027Z,4.91
2024-05-09T07:11:58.049Z,5.09
2024-05-09T07:12:57.913Z,4.98
2024-05-09T07:13:57.973Z,5.72
2024-05-09T07:14:57.881Z,4.78
2024-05-09T07:15:57.876Z,5.15
2024-05-09T07:16:58.013Z,4.82
2024-05-09T07:17:58.002Z,4.93
2024-05-09T07:18:58.010Z,4.48
2024-05-09T07:19:57.901Z,4.73
2024-05-09T07:20:57.978Z,4.21
2024-05-09T07:21:57.808Z,4.89
2024-05-09T07:22:57.820Z,4.76
2024-05-09T07:23:57.806Z,4.91
2024-05-09T07:24:57.769Z,4.51
2024-05-09T07:25:57.790Z,4.34
2024-05-09T07:26:57.784Z,4.39
2024-05-09T07:27:57.760Z,4.77
2024-05-09T07:28:57.730Z,4.22
2024-05-09T07:29:57.725Z,4.03
2024-05-09T07:30:57.704Z,4.58
2024-05-09T07:31:57.778Z,4.33
2024-05-09T07:32:57.957Z,4.61
2024-05-09T07:33:57.763Z,4.78
2024-05-09T07:34:57.689Z,4.57
2024-05-09T07:35:57.681Z,4.69
2024-05-09T07:36:57.657Z,4.07
2024-05-09T07:37:57.708Z,4.44
2024-05-09T07:38:57.629Z,4.25
2024-05-09T07:39:57.644Z,4.00
2024-05-09T07:40:57.707Z,4.65
2024-05-09T07:41:57.615Z,4.21
2024-05-09T07:42:57.589Z,4.35
2024-05-09T07:43:57.641Z,4.32
2024-05-09T07:45:11.233Z,4.17
2024-05-09T07:46:00.953Z,4.21
2024-05-09T07:49:44.288Z,4.45
2024-05-09T07:53:14.177Z,4.59
2024-05-09T07:53:46.064Z,3.99
2024-05-09T07:53:57.150Z,4.90
2024-05-09T07:54:52.984Z,3.98
2024-05-09T07:55:53.068Z,4.15
2024-05-09T07:56:53.148Z,3.98
2024-05-09T07:57:52.772Z,4.03
2024-05-09T07:58:52.924Z,3.36
2024-05-09T07:59:52.710Z,4.33
2024-05-09T08:00:52.885Z,3.53
2024-05-09T08:01:52.891Z,3.83
2024-05-09T08:02:52.789Z,4.59
2024-05-09T08:03:53.032Z,4.37
2024-05-09T08:04:52.731Z,4.49
2024-05-09T08:05:52.741Z,3.64
2024-05-09T08:06:52.775Z,3.81
2024-05-09T08:07:52.608Z,4.35
2024-05-09T08:08:52.654Z,3.83
2024-05-09T08:09:52.722Z,3.90
2024-05-09T08:10:52.705Z,3.43
2024-05-09T08:11:52.801Z,4.22
2024-05-09T08:12:52.662Z,3.56
2024-05-09T08:13:52.663Z,4.05
2024-05-09T08:14:52.566Z,3.28
2024-05-09T08:15:52.923Z,3.58
2024-05-09T08:16:52.616Z,3.88
2024-05-09T08:17:52.735Z,4.11
2024-05-09T08:18:52.686Z,3.70
2024-05-09T08:19:52.589Z,3.45
2024-05-09T08:20:52.522Z,3.46
2024-05-09T08:21:52.522Z,3.59
2024-05-09T08:22:52.526Z,3.86
2024-05-09T08:23:52.519Z,4.18
2024-05-09T08:24:52.607Z,3.30
2024-05-09T08:25:52.443Z,3.38
2024-05-09T08:26:52.456Z,3.75
2024-05-09T08:27:52.595Z,2.92
2024-05-09T08:28:52.404Z,3.38
2024-05-09T08:29:52.450Z,3.63
2024-05-09T08:30:52.495Z,3.15
2024-05-09T08:31:52.400Z,3.42
2024-05-09T08:32:52.470Z,3.17
2024-05-09T08:33:52.599Z,3.75
2024-05-09T08:34:52.526Z,3.22
2024-05-09T08:35:52.323Z,3.16
2024-05-09T08:36:52.383Z,3.57
2024-05-09T08:37:52.390Z,2.74
2024-05-09T08:38:52.295Z,2.54
2024-05-09T08:39:52.373Z,2.89
2024-05-09T08:40:52.316Z,3.06
2024-05-09T08:41:52.278Z,3.39
2024-05-09T08:42:52.605Z,3.58
2024-05-09T08:43:52.252Z,3.24
2024-05-09T08:44:52.238Z,3.36
2024-05-09T08:45:52.953Z,3.21
2024-05-09T08:46:52.225Z,2.96
2024-05-09T08:47:52.347Z,3.39
2024-05-09T08:48:52.343Z,3.58
2024-05-09T08:49:52.259Z,3.19
2024-05-09T08:50:52.284Z,3.03
2024-05-09T08:51:52.205Z,3.71
2024-05-09T08:52:52.174Z,3.01
2024-05-09T08:53:52.142Z,3.23
2024-05-09T08:54:52.190Z,3.28
2024-05-09T08:55:52.142Z,3.75
2024-05-09T08:56:52.144Z,4.05
2024-05-09T08:57:52.306Z,3.99
2024-05-09T08:58:52.095Z,3.48
2024-05-09T08:59:52.088Z,4.10
2024-05-09T09:00:52.217Z,3.10
2024-05-09T09:01:52.134Z,2.76
2024-05-09T09:02:52.078Z,2.61
2024-05-09T09:03:52.187Z,3.40
2024-05-09T09:04:52.152Z,3.60
2024-05-09T09:05:52.129Z,3.06
2024-05-09T09:06:53.248Z,3.79
2024-05-09T09:07:52.003Z,3.91
2024-05-09T09:08:51.989Z,3.20
2024-05-09T09:09:52.018Z,3.40
2024-05-09T09:10:52.023Z,3.38
2024-05-09T09:11:51.995Z,2.88
2024-05-09T09:12:52.043Z,3.03
2024-05-09T09:13:51.937Z,3.04
2024-05-09T09:14:51.937Z,3.71
2024-05-09T09:15:52.037Z,3.89
2024-05-09T09:16:51.912Z,3.84
2024-05-09T09:17:51.974Z,3.94
2024-05-09T09:18:52.130Z,2.96
2024-05-09T09:19:51.966Z,3.34
2024-05-09T09:20:51.852Z,3.80
2024-05-09T09:21:51.984Z,4.20
2024-05-09T09:22:51.853Z,3.78
2024-05-09T09:23:51.848Z,3.64
2024-05-09T09:24:51.940Z,4.04
2024-05-09T09:25:51.823Z,3.46
2024-05-09T09:26:51.807Z,3.39
2024-05-09T09:27:51.821Z,3.49
2024-05-09T09:28:51.813Z,3.33
2024-05-09T09:29:51.774Z,3.80
2024-05-09T09:30:51.849Z,3.90
2024-05-09T09:31:51.739Z,3.41
2024-05-09T09:32:51.852Z,3.67
2024-05-09T09:33:51.955Z,3.09
2024-05-09T09:34:51.864Z,3.42
2024-05-09T09:35:51.714Z,3.50
2024-05-09T09:36:51.708Z,3.98
2024-05-09T09:37:51.702Z,4.29
2024-05-09T09:38:51.697Z,4.85
2024-05-09T09:39:51.653Z,3.27
2024-05-09T09:40:51.687Z,3.99
2024-05-09T09:41:51.644Z,3.54
2024-05-09T09:42:51.810Z,3.45
2024-05-09T09:43:51.635Z,3.54
2024-05-09T09:45:01.834Z,3.26
2024-05-09T09:45:52.186Z,3.43
2024-05-09T09:46:51.662Z,3.62
2024-05-09T09:47:51.762Z,4.16
2024-05-09T09:48:51.748Z,4.50
2024-05-09T09:49:51.629Z,3.33
2024-05-09T09:50:51.565Z,3.76
2024-05-09T09:51:51.673Z,3.41
2024-05-09T09:52:51.527Z,3.18
2024-05-09T09:53:51.511Z,3.31
2024-05-09T09:54:51.522Z,3.66
2024-05-09T09:55:51.507Z,3.44
2024-05-09T09:56:51.521Z,4.04
2024-05-09T09:57:51.533Z,4.48
2024-05-09T09:58:51.463Z,3.79
2024-05-09T09:59:51.438Z,4.10
2024-05-09T10:00:51.601Z,4.10
2024-05-09T10:01:51.557Z,4.61
2024-05-09T10:02:51.454Z,4.09
2024-05-09T10:03:51.664Z,3.89
2024-05-09T10:04:51.481Z,4.05
2024-05-09T10:05:51.461Z,3.69
2024-05-09T10:06:51.494Z,4.73
2024-05-09T10:07:51.374Z,3.79
2024-05-09T10:08:51.356Z,4.46
2024-05-09T10:09:51.426Z,4.43
2024-05-09T10:10:51.473Z,4.38
2024-05-09T10:11:52.438Z,4.50
2024-05-09T10:12:51.352Z,4.02
2024-05-09T10:13:51.308Z,4.04
2024-05-09T10:14:51.303Z,4.10
2024-05-09T10:15:51.643Z,4.71
2024-05-09T10:16:51.289Z,4.87
2024-05-09T10:17:51.381Z,4.65
2024-05-09T10:18:51.435Z,4.71
2024-05-09T10:19:51.417Z,4.72
2024-05-09T10:20:51.266Z,5.16
2024-05-09T10:21:51.301Z,4.52
2024-05-09T10:22:51.229Z,4.23
2024-05-09T10:23:51.221Z,4.94
2024-05-09T10:24:51.295Z,5.05
2024-05-09T10:25:51.178Z,4.74
2024-05-09T10:26:51.180Z,4.23
2024-05-09T10:27:51.198Z,4.13
2024-05-09T10:28:51.234Z,4.15
2024-05-09T10:29:51.167Z,4.41
2024-05-09T10:30:51.169Z,3.97
2024-05-09T10:31:51.191Z,3.72
2024-05-09T10:32:51.257Z,4.61
2024-05-09T10:33:52.321Z,4.96
2024-05-09T10:34:51.098Z,4.09
2024-05-09T10:35:51.065Z,4.39
2024-05-09T10:36:51.127Z,4.18
2024-05-09T10:37:51.076Z,3.62
2024-05-09T10:38:51.065Z,3.64
2024-05-09T10:39:51.076Z,3.57
2024-05-09T10:40:51.035Z,3.46
2024-05-09T10:41:51.006Z,4.32
2024-05-09T10:42:51.076Z,3.80
2024-05-09T10:43:51.077Z,3.64
2024-05-09T10:44:50.977Z,3.92
2024-05-09T10:45:51.036Z,3.42
2024-05-09T10:46:50.976Z,3.64
2024-05-09T10:47:51.484Z,3.96
2024-05-09T10:48:51.046Z,4.00
2024-05-09T10:49:51.146Z,3.62
2024-05-09T10:50:50.915Z,2.52
2024-05-09T10:51:51.004Z,2.59
2024-05-09T10:52:51.226Z,3.38
2024-05-09T10:53:50.870Z,3.35
2024-05-09T10:54:50.922Z,2.77
2024-05-09T10:55:50.858Z,2.91
2024-05-09T10:56:50.875Z,2.39
2024-05-09T10:57:50.873Z,2.69
2024-05-09T10:58:50.841Z,3.18
2024-05-09T10:59:50.820Z,3.03
2024-05-09T11:00:50.899Z,3.00
2024-05-09T11:01:51.021Z,3.08
2024-05-09T11:02:50.835Z,3.30
2024-05-09T11:03:51.091Z,2.88
2024-05-09T11:04:50.851Z,3.45
2024-05-09T11:05:50.908Z,3.12
2024-05-09T11:06:50.789Z,2.77
2024-05-09T11:07:50.733Z,2.40
2024-05-09T11:08:50.740Z,2.80
2024-05-09T11:09:50.762Z,2.76
2024-05-09T11:10:51.058Z,2.58
2024-05-09T11:11:51.129Z,2.96
2024-05-09T11:12:50.732Z,2.82
2024-05-09T11:13:50.691Z,2.87
2024-05-09T11:14:50.677Z,2.66
2024-05-09T11:15:50.699Z,2.66
2024-05-09T11:16:50.698Z,2.84
2024-05-09T11:17:50.794Z,2.94
2024-05-09T11:18:50.819Z,3.07
2024-05-09T11:19:50.654Z,3.38
2024-05-09T11:20:50.707Z,3.06
2024-05-09T11:21:50.634Z,3.27
2024-05-09T11:22:50.599Z,2.84
2024-05-09T11:23:50.568Z,2.77
2024-05-09T11:24:50.633Z,3.18
2024-05-09T11:25:50.585Z,3.53
2024-05-09T11:26:50.572Z,3.49
2024-05-09T11:27:50.579Z,3.21
2024-05-09T11:28:50.877Z,3.59
2024-05-09T11:29:50.528Z,3.29
2024-05-09T11:30:50.588Z,3.07
2024-05-09T11:31:50.559Z,3.69
2024-05-09T11:32:50.610Z,3.13
2024-05-09T11:33:50.599Z,3.51
2024-05-09T11:34:52.648Z,3.51
2024-05-09T11:35:50.461Z,3.87
2024-05-09T11:36:50.476Z,2.96
2024-05-09T11:37:50.424Z,2.96
2024-05-09T11:38:50.439Z,2.97
2024-05-09T11:39:50.797Z,3.00
2024-05-09T11:40:50.449Z,2.82
2024-05-09T11:41:50.390Z,2.94
2024-05-09T11:42:53.013Z,2.66
2024-05-09T11:43:50.379Z,3.01
2024-05-09T11:44:50.365Z,2.80
2024-05-09T11:45:50.402Z,2.54
2024-05-09T11:46:50.329Z,2.80
2024-05-09T11:47:50.399Z,2.82
2024-05-09T11:48:50.498Z,2.71
2024-05-09T11:49:50.326Z,3.21
2024-05-09T11:50:50.292Z,2.51
2024-05-09T11:51:50.299Z,2.93
2024-05-09T11:52:50.280Z,2.85
2024-05-09T11:53:50.283Z,4.85
2024-05-09T11:54:50.285Z,3.06
2024-05-09T11:55:50.243Z,2.54
2024-05-09T11:56:50.225Z,5.38
2024-05-09T11:57:50.285Z,2.34
2024-05-09T11:58:50.212Z,2.61
2024-05-09T11:59:50.202Z,3.34
2024-05-09T12:00:50.414Z,3.07
2024-05-09T12:01:50.392Z,3.17
2024-05-09T12:02:50.222Z,3.82
2024-05-09T12:03:50.384Z,3.02
2024-05-09T12:04:50.236Z,2.90
2024-05-09T12:05:50.247Z,3.29
2024-05-09T12:06:50.187Z,2.95
2024-05-09T12:07:50.135Z,3.57
2024-05-09T12:08:50.097Z,3.21
2024-05-09T12:09:50.138Z,3.01
2024-05-09T12:10:50.343Z,2.87
2024-05-09T12:11:50.192Z,3.22
2024-05-09T12:12:50.152Z,2.94
2024-05-09T12:13:50.052Z,2.66
2024-05-09T12:14:50.046Z,2.80
2024-05-09T12:15:50.076Z,3.25
2024-05-09T12:16:50.086Z,2.78
2024-05-09T12:17:50.847Z,2.89
2024-05-09T12:18:50.152Z,2.83
2024-05-09T12:19:49.986Z,3.21
2024-05-09T12:20:50.008Z,3.49
2024-05-09T12:21:50.028Z,3.32
2024-05-09T12:22:49.954Z,3.69
2024-05-09T12:23:49.957Z,2.67
2024-05-09T12:24:49.967Z,3.01
2024-05-09T12:25:49.951Z,2.55
2024-05-09T12:26:49.909Z,3.57
2024-05-09T12:27:49.974Z,3.11
2024-05-09T12:28:49.894Z,2.86
2024-05-09T12:29:49.892Z,3.00
2024-05-09T12:30:49.938Z,2.56
2024-05-09T12:31:49.933Z,2.93
2024-05-09T12:32:50.085Z,2.90
2024-05-09T12:33:49.988Z,2.43
2024-05-09T12:34:49.864Z,2.89
2024-05-09T12:35:51.116Z,2.35
2024-05-09T12:36:49.898Z,2.80
2024-05-09T12:37:49.800Z,3.12
2024-05-09T12:38:49.790Z,3.00
2024-05-09T12:39:49.852Z,2.63
2024-05-09T12:40:49.798Z,2.53
2024-05-09T12:41:49.755Z,3.00
2024-05-09T12:42:49.847Z,2.76
2024-05-09T12:43:49.735Z,2.26
2024-05-09T12:44:49.750Z,2.85
2024-05-09T12:45:49.774Z,2.82
2024-05-09T12:46:49.701Z,2.41
2024-05-09T12:47:49.955Z,2.95
2024-05-09T12:48:49.923Z,3.09
2024-05-09T12:49:49.738Z,2.89
2024-05-09T12:50:49.812Z,3.15
2024-05-09T12:51:49.827Z,2.35
2024-05-09T12:52:49.650Z,2.39
2024-05-09T12:53:49.664Z,2.46
2024-05-09T12:54:49.676Z,2.54
2024-05-09T12:55:56.664Z,2.80
2024-05-09T12:56:49.607Z,2.77
2024-05-09T12:57:49.640Z,2.75
2024-05-09T12:58:49.621Z,3.09
2024-05-09T12:59:49.571Z,2.31
2024-05-09T13:00:49.785Z,2.77
2024-05-09T13:01:49.634Z,2.42
2024-05-09T13:02:49.584Z,2.55
2024-05-09T13:03:49.851Z,2.31
2024-05-09T13:04:49.602Z,2.73
2024-05-09T13:05:49.675Z,2.66
2024-05-09T13:06:49.642Z,2.74
2024-05-09T13:07:49.507Z,2.74
2024-05-09T13:08:49.463Z,2.62
2024-05-09T13:09:49.553Z,2.83
2024-05-09T13:10:49.660Z,2.58
2024-05-09T13:11:49.614Z,2.51
2024-05-09T13:12:49.613Z,3.15
2024-05-09T13:13:49.420Z,2.94
2024-05-09T13:14:49.392Z,2.37
2024-05-09T13:15:49.459Z,2.54
2024-05-09T13:16:49.429Z,2.97
2024-05-09T13:17:49.485Z,2.64
2024-05-09T13:18:49.554Z,2.50
2024-05-09T13:19:49.352Z,3.14
2024-05-09T13:20:49.324Z,2.79
2024-05-09T13:21:49.396Z,2.98